sensor_id;sensor_type;location;lat;lon;timestamp;pressure;altitude;pressure_sealevel;temperature;humidity
55604;BME280;41468;48.838;9.330;2023-07-13T00:01:50;98236.03;;;21.68;55.73
55604;BME280;41468;48.838;9.330;2023-07-13T00:04:19;98241.28;;;21.66;55.41
55604;BME280;41468;48.838;9.330;2023-07-13T00:06:46;98234.38;;;21.57;56.30
55604;BME280;41468;48.838;9.330;2023-07-13T00:09:15;98239.81;;;21.48;55.74
55604;BME280;41468;48.838;9.330;2023-07-13T00:11:44;98242.56;;;21.48;55.99
55604;BME280;41468;48.838;9.330;2023-07-13T00:14:11;98242.69;;;21.45;55.94
55604;BME280;41468;48.838;9.330;2023-07-13T00:16:39;98246.44;;;21.38;56.31
55604;BME280;41468;48.838;9.330;2023-07-13T00:19:11;98244.53;;;21.35;55.72
55604;BME280;41468;48.838;9.330;2023-07-13T00:21:39;98247.66;;;21.37;55.83
55604;BME280;41468;48.838;9.330;2023-07-13T00:24:10;98251.75;;;21.32;56.76
55604;BME280;41468;48.838;9.330;2023-07-13T00:26:42;98245.41;;;21.32;55.93
55604;BME280;41468;48.838;9.330;2023-07-13T00:29:13;98240.16;;;21.21;56.65
55604;BME280;41468;48.838;9.330;2023-07-13T00:31:40;98239.06;;;21.18;56.54
55604;BME280;41468;48.838;9.330;2023-07-13T00:34:07;98246.03;;;21.10;56.13
55604;BME280;41468;48.838;9.330;2023-07-13T00:36:34;98243.44;;;21.03;56.95
55604;BME280;41468;48.838;9.330;2023-07-13T00:39:00;98249.88;;;21.00;56.63
55604;BME280;41468;48.838;9.330;2023-07-13T00:41:27;98250.34;;;20.99;57.09
55604;BME280;41468;48.838;9.330;2023-07-13T00:43:54;98256.66;;;20.99;56.71
55604;BME280;41468;48.838;9.330;2023-07-13T00:46:24;98255.19;;;20.94;56.59
55604;BME280;41468;48.838;9.330;2023-07-13T00:48:53;98246.63;;;20.89;57.32
55604;BME280;41468;48.838;9.330;2023-07-13T00:51:27;98251.41;;;20.88;57.50
55604;BME280;41468;48.838;9.330;2023-07-13T00:53:56;98251.81;;;20.74;57.86
55604;BME280;41468;48.838;9.330;2023-07-13T00:56:24;98267.81;;;20.83;57.66
55604;BME280;41468;48.838;9.330;2023-07-13T00:58:52;98266.34;;;20.78;57.83
55604;BME280;41468;48.838;9.330;2023-07-13T01:01:19;98272.69;;;20.62;58.76
55604;BME280;41468;48.838;9.330;2023-07-13T01:03:46;98276.13;;;20.83;58.14
55604;BME280;41468;48.838;9.330;2023-07-13T01:06:13;98277.97;;;20.73;58.73
55604;BME280;41468;48.838;9.330;2023-07-13T01:08:41;98281.63;;;20.70;59.08
55604;BME280;41468;48.838;9.330;2023-07-13T01:11:08;98271.31;;;20.70;58.78
55604;BME280;41468;48.838;9.330;2023-07-13T01:13:35;98272.31;;;20.77;58.71
55604;BME280;41468;48.838;9.330;2023-07-13T01:16:24;98265.16;;;20.63;59.46
55604;BME280;41468;48.838;9.330;2023-07-13T01:18:51;98268.13;;;20.56;59.97
55604;BME280;41468;48.838;9.330;2023-07-13T01:21:18;98273.94;;;20.45;60.63
55604;BME280;41468;48.838;9.330;2023-07-13T01:23:45;98267.28;;;20.26;61.63
55604;BME280;41468;48.838;9.330;2023-07-13T01:26:12;98267.44;;;20.19;62.48
55604;BME280;41468;48.838;9.330;2023-07-13T01:28:39;98267.28;;;20.10;63.21
55604;BME280;41468;48.838;9.330;2023-07-13T01:31:06;98269.25;;;20.09;63.54
55604;BME280;41468;48.838;9.330;2023-07-13T01:33:33;98279.72;;;20.01;62.21
55604;BME280;41468;48.838;9.330;2023-07-13T01:36:01;98278.31;;;19.93;64.14
55604;BME280;41468;48.838;9.330;2023-07-13T01:38:28;98267.47;;;19.82;63.70
55604;BME280;41468;48.838;9.330;2023-07-13T01:40:55;98282.97;;;19.80;64.10
55604;BME280;41468;48.838;9.330;2023-07-13T01:43:26;98278.19;;;19.64;64.72
55604;BME280;41468;48.838;9.330;2023-07-13T01:45:53;98276.25;;;19.61;64.50
55604;BME280;41468;48.838;9.330;2023-07-13T01:48:35;98283.13;;;19.53;65.39
55604;BME280;41468;48.838;9.330;2023-07-13T01:51:01;98274.91;;;19.49;66.27
55604;BME280;41468;48.838;9.330;2023-07-13T01:53:28;98284.50;;;19.45;67.29
55604;BME280;41468;48.838;9.330;2023-07-13T01:55:55;98285.94;;;19.33;67.98
55604;BME280;41468;48.838;9.330;2023-07-13T01:58:22;98297.72;;;19.37;66.45
55604;BME280;41468;48.838;9.330;2023-07-13T02:00:49;98302.34;;;19.24;66.71
55604;BME280;41468;48.838;9.330;2023-07-13T02:03:16;98292.56;;;19.19;67.10
55604;BME280;41468;48.838;9.330;2023-07-13T02:05:44;98302.28;;;19.27;67.24
55604;BME280;41468;48.838;9.330;2023-07-13T02:08:11;98295.69;;;19.21;66.78
55604;BME280;41468;48.838;9.330;2023-07-13T02:10:38;98299.81;;;19.13;69.01
55604;BME280;41468;48.838;9.330;2023-07-13T02:13:06;98302.78;;;19.02;69.34
55604;BME280;41468;48.838;9.330;2023-07-13T02:15:33;98299.00;;;18.92;69.65
55604;BME280;41468;48.838;9.330;2023-07-13T02:18:00;98292.00;;;19.08;68.82
55604;BME280;41468;48.838;9.330;2023-07-13T02:20:27;98293.03;;;18.94;69.10
55604;BME280;41468;48.838;9.330;2023-07-13T02:22:53;98290.78;;;18.89;70.41
55604;BME280;41468;48.838;9.330;2023-07-13T02:25:20;98298.13;;;18.72;70.77
55604;BME280;41468;48.838;9.330;2023-07-13T02:27:47;98299.59;;;18.80;69.65
55604;BME280;41468;48.838;9.330;2023-07-13T02:30:14;98301.34;;;18.70;70.91
55604;BME280;41468;48.838;9.330;2023-07-13T02:32:41;98299.63;;;18.57;71.83
55604;BME280;41468;48.838;9.330;2023-07-13T02:35:07;98307.28;;;18.45;72.32
55604;BME280;41468;48.838;9.330;2023-07-13T02:37:34;98307.75;;;18.40;72.68
55604;BME280;41468;48.838;9.330;2023-07-13T02:40:02;98303.75;;;18.45;72.42
55604;BME280;41468;48.838;9.330;2023-07-13T02:42:35;98308.13;;;18.42;72.72
55604;BME280;41468;48.838;9.330;2023-07-13T02:45:06;98305.13;;;18.33;73.06
55604;BME280;41468;48.838;9.330;2023-07-13T02:47:33;98306.22;;;18.39;72.78
55604;BME280;41468;48.838;9.330;2023-07-13T02:50:00;98307.41;;;18.38;73.46
55604;BME280;41468;48.838;9.330;2023-07-13T02:52:27;98309.16;;;18.28;73.91
55604;BME280;41468;48.838;9.330;2023-07-13T02:54:54;98309.91;;;18.29;73.79
55604;BME280;41468;48.838;9.330;2023-07-13T02:57:21;98315.41;;;18.32;73.31
55604;BME280;41468;48.838;9.330;2023-07-13T02:59:48;98315.59;;;18.22;73.28
55604;BME280;41468;48.838;9.330;2023-07-13T03:02:14;98316.53;;;18.12;74.33
55604;BME280;41468;48.838;9.330;2023-07-13T03:04:41;98323.59;;;18.13;73.87
55604;BME280;41468;48.838;9.330;2023-07-13T03:07:08;98320.47;;;18.10;74.30
55604;BME280;41468;48.838;9.330;2023-07-13T03:09:35;98315.78;;;18.07;74.57
55604;BME280;41468;48.838;9.330;2023-07-13T03:12:02;98318.75;;;17.93;74.06
55604;BME280;41468;48.838;9.330;2023-07-13T03:14:29;98323.97;;;17.87;74.68
55604;BME280;41468;48.838;9.330;2023-07-13T03:16:56;98326.28;;;17.93;74.15
55604;BME280;41468;48.838;9.330;2023-07-13T03:19:23;98315.47;;;18.02;74.47
55604;BME280;41468;48.838;9.330;2023-07-13T03:21:50;98331.53;;;18.10;74.63
55604;BME280;41468;48.838;9.330;2023-07-13T03:24:17;98335.66;;;17.99;75.17
55604;BME280;41468;48.838;9.330;2023-07-13T03:26:44;98329.41;;;17.95;75.39
55604;BME280;41468;48.838;9.330;2023-07-13T03:29:11;98339.41;;;18.12;74.79
55604;BME280;41468;48.838;9.330;2023-07-13T03:31:39;98333.94;;;18.08;75.42
55604;BME280;41468;48.838;9.330;2023-07-13T03:34:06;98337.78;;;18.15;74.67
55604;BME280;41468;48.838;9.330;2023-07-13T03:36:33;98340.03;;;18.23;75.03
55604;BME280;41468;48.838;9.330;2023-07-13T03:39:02;98338.03;;;18.24;73.84
55604;BME280;41468;48.838;9.330;2023-07-13T03:41:29;98343.53;;;18.27;74.85
55604;BME280;41468;48.838;9.330;2023-07-13T03:43:58;98351.81;;;18.27;74.29
55604;BME280;41468;48.838;9.330;2023-07-13T03:46:24;98349.47;;;18.26;74.89
55604;BME280;41468;48.838;9.330;2023-07-13T03:48:51;98352.59;;;18.28;73.64
55604;BME280;41468;48.838;9.330;2023-07-13T03:51:29;98348.16;;;18.34;71.74
55604;BME280;41468;48.838;9.330;2023-07-13T03:53:57;98348.94;;;18.35;71.71
55604;BME280;41468;48.838;9.330;2023-07-13T03:56:24;98351.00;;;18.54;72.13
55604;BME280;41468;48.838;9.330;2023-07-13T03:58:50;98358.72;;;18.39;72.56
55604;BME280;41468;48.838;9.330;2023-07-13T04:01:19;98363.22;;;18.57;72.35
55604;BME280;41468;48.838;9.330;2023-07-13T04:03:46;98366.56;;;18.44;72.76
55604;BME280;41468;48.838;9.330;2023-07-13T04:06:29;98355.91;;;18.43;73.07
55604;BME280;41468;48.838;9.330;2023-07-13T04:08:58;98360.97;;;18.48;72.88
55604;BME280;41468;48.838;9.330;2023-07-13T04:11:28;98359.72;;;18.52;73.09
55604;BME280;41468;48.838;9.330;2023-07-13T04:13:55;98362.66;;;18.65;72.61
55604;BME280;41468;48.838;9.330;2023-07-13T04:16:22;98361.88;;;18.65;71.35
55604;BME280;41468;48.838;9.330;2023-07-13T04:18:50;98368.22;;;18.62;71.51
55604;BME280;41468;48.838;9.330;2023-07-13T04:21:21;98367.63;;;18.50;73.19
55604;BME280;41468;48.838;9.330;2023-07-13T04:23:49;98367.72;;;18.70;72.37
55604;BME280;41468;48.838;9.330;2023-07-13T04:26:15;98368.97;;;18.66;72.68
55604;BME280;41468;48.838;9.330;2023-07-13T04:28:42;98365.91;;;18.60;70.93
55604;BME280;41468;48.838;9.330;2023-07-13T04:31:09;98369.44;;;18.61;72.21
55604;BME280;41468;48.838;9.330;2023-07-13T04:33:36;98378.97;;;18.60;71.73
55604;BME280;41468;48.838;9.330;2023-07-13T04:36:04;98374.03;;;18.71;70.92
55604;BME280;41468;48.838;9.330;2023-07-13T04:38:32;98383.63;;;18.90;70.47
55604;BME280;41468;48.838;9.330;2023-07-13T04:41:02;98382.34;;;18.94;70.00
55604;BME280;41468;48.838;9.330;2023-07-13T04:43:30;98389.44;;;18.95;70.02
55604;BME280;41468;48.838;9.330;2023-07-13T04:45:57;98381.25;;;18.88;71.71
55604;BME280;41468;48.838;9.330;2023-07-13T04:48:29;98387.81;;;18.98;71.26
55604;BME280;41468;48.838;9.330;2023-07-13T04:50:57;98386.84;;;18.85;72.21
55604;BME280;41468;48.838;9.330;2023-07-13T04:53:24;98382.16;;;19.05;70.59
55604;BME280;41468;48.838;9.330;2023-07-13T04:55:52;98388.31;;;18.93;71.80
55604;BME280;41468;48.838;9.330;2023-07-13T04:58:19;98390.41;;;18.85;73.13
55604;BME280;41468;48.838;9.330;2023-07-13T05:00:46;98389.63;;;18.85;72.75
55604;BME280;41468;48.838;9.330;2023-07-13T05:03:12;98388.75;;;18.91;72.76
55604;BME280;41468;48.838;9.330;2023-07-13T05:05:39;98392.31;;;18.88;72.96
55604;BME280;41468;48.838;9.330;2023-07-13T05:08:06;98387.34;;;18.80;74.31
55604;BME280;41468;48.838;9.330;2023-07-13T05:10:35;98384.03;;;18.88;73.24
55604;BME280;41468;48.838;9.330;2023-07-13T05:13:02;98386.44;;;18.86;72.75
55604;BME280;41468;48.838;9.330;2023-07-13T05:15:29;98390.19;;;19.00;71.70
55604;BME280;41468;48.838;9.330;2023-07-13T05:17:56;98403.75;;;19.14;71.32
55604;BME280;41468;48.838;9.330;2023-07-13T05:20:23;98399.28;;;19.20;71.73
55604;BME280;41468;48.838;9.330;2023-07-13T05:22:50;98398.22;;;19.34;70.51
55604;BME280;41468;48.838;9.330;2023-07-13T05:25:17;98395.06;;;19.55;68.85
55604;BME280;41468;48.838;9.330;2023-07-13T05:27:44;98399.84;;;19.75;67.68
55604;BME280;41468;48.838;9.330;2023-07-13T05:30:13;98397.06;;;19.95;66.14
55604;BME280;41468;48.838;9.330;2023-07-13T05:32:40;98404.88;;;20.00;65.64
55604;BME280;41468;48.838;9.330;2023-07-13T05:35:08;98398.06;;;19.84;64.63
55604;BME280;41468;48.838;9.330;2023-07-13T05:37:35;98407.00;;;19.92;65.50
55604;BME280;41468;48.838;9.330;2023-07-13T05:40:01;98391.50;;;19.95;65.09
55604;BME280;41468;48.838;9.330;2023-07-13T05:42:28;98400.31;;;19.90;64.65
55604;BME280;41468;48.838;9.330;2023-07-13T05:44:57;98392.56;;;20.01;65.64
55604;BME280;41468;48.838;9.330;2023-07-13T05:47:24;98394.22;;;20.15;65.06
55604;BME280;41468;48.838;9.330;2023-07-13T05:49:51;98395.19;;;20.08;63.70
55604;BME280;41468;48.838;9.330;2023-07-13T05:52:18;98403.94;;;20.23;62.90
55604;BME280;41468;48.838;9.330;2023-07-13T05:54:44;98401.28;;;20.19;62.84
55604;BME280;41468;48.838;9.330;2023-07-13T05:57:11;98412.19;;;20.10;63.15
55604;BME280;41468;48.838;9.330;2023-07-13T05:59:38;98410.53;;;20.13;61.53
55604;BME280;41468;48.838;9.330;2023-07-13T06:02:07;98420.41;;;20.14;62.40
55604;BME280;41468;48.838;9.330;2023-07-13T06:04:35;98419.63;;;20.13;62.91
55604;BME280;41468;48.838;9.330;2023-07-13T06:07:01;98418.34;;;20.18;61.89
55604;BME280;41468;48.838;9.330;2023-07-13T06:09:28;98421.19;;;20.14;62.19
55604;BME280;41468;48.838;9.330;2023-07-13T06:11:55;98426.94;;;20.03;62.37
55604;BME280;41468;48.838;9.330;2023-07-13T06:14:22;98425.16;;;20.13;61.32
55604;BME280;41468;48.838;9.330;2023-07-13T06:16:48;98418.69;;;20.20;60.30
55604;BME280;41468;48.838;9.330;2023-07-13T06:19:15;98427.19;;;20.29;61.21
55604;BME280;41468;48.838;9.330;2023-07-13T06:21:42;98431.19;;;20.44;61.09
55604;BME280;41468;48.838;9.330;2023-07-13T06:24:09;98428.56;;;20.57;59.89
55604;BME280;41468;48.838;9.330;2023-07-13T06:26:36;98429.00;;;21.05;59.17
55604;BME280;41468;48.838;9.330;2023-07-13T06:29:07;98431.75;;;21.37;56.27
55604;BME280;41468;48.838;9.330;2023-07-13T06:31:34;98430.91;;;21.82;55.75
55604;BME280;41468;48.838;9.330;2023-07-13T06:34:01;98438.69;;;21.75;54.00
55604;BME280;41468;48.838;9.330;2023-07-13T06:36:28;98446.81;;;21.82;51.83
55604;BME280;41468;48.838;9.330;2023-07-13T06:39:07;98451.78;;;21.74;53.57
55604;BME280;41468;48.838;9.330;2023-07-13T06:41:34;98459.41;;;21.57;54.21
55604;BME280;41468;48.838;9.330;2023-07-13T06:44:00;98460.59;;;21.56;54.86
55604;BME280;41468;48.838;9.330;2023-07-13T06:46:28;98455.47;;;21.71;53.20
55604;BME280;41468;48.838;9.330;2023-07-13T06:48:56;98468.56;;;21.71;53.19
55604;BME280;41468;48.838;9.330;2023-07-13T06:51:23;98463.78;;;21.71;51.76
55604;BME280;41468;48.838;9.330;2023-07-13T06:53:55;98466.28;;;21.95;52.82
55604;BME280;41468;48.838;9.330;2023-07-13T06:56:22;98465.84;;;22.25;52.79
55604;BME280;41468;48.838;9.330;2023-07-13T06:58:49;98461.88;;;22.52;51.48
55604;BME280;41468;48.838;9.330;2023-07-13T07:01:16;98462.63;;;22.78;49.11
55604;BME280;41468;48.838;9.330;2023-07-13T07:03:47;98467.66;;;23.09;52.04
55604;BME280;41468;48.838;9.330;2023-07-13T07:06:20;98465.28;;;23.20;48.84
55604;BME280;41468;48.838;9.330;2023-07-13T07:08:48;98468.66;;;23.50;48.75
55604;BME280;41468;48.838;9.330;2023-07-13T07:11:21;98475.00;;;23.50;47.67
55604;BME280;41468;48.838;9.330;2023-07-13T07:13:52;98472.69;;;23.36;48.69
55604;BME280;41468;48.838;9.330;2023-07-13T07:16:20;98465.22;;;23.46;45.90
55604;BME280;41468;48.838;9.330;2023-07-13T07:18:47;98473.97;;;23.57;46.65
55604;BME280;41468;48.838;9.330;2023-07-13T07:21:14;98464.22;;;23.74;47.46
55604;BME280;41468;48.838;9.330;2023-07-13T07:23:42;98472.34;;;23.81;45.91
55604;BME280;41468;48.838;9.330;2023-07-13T07:26:09;98474.88;;;24.11;46.00
55604;BME280;41468;48.838;9.330;2023-07-13T07:28:37;98478.47;;;24.20;45.36
55604;BME280;41468;48.838;9.330;2023-07-13T07:31:08;98475.59;;;24.33;44.78
55604;BME280;41468;48.838;9.330;2023-07-13T07:33:38;98469.00;;;24.40;44.21
55604;BME280;41468;48.838;9.330;2023-07-13T07:36:05;98467.28;;;24.42;43.26
55604;BME280;41468;48.838;9.330;2023-07-13T07:38:35;98470.00;;;24.55;44.92
55604;BME280;41468;48.838;9.330;2023-07-13T07:41:06;98463.56;;;24.67;43.28
55604;BME280;41468;48.838;9.330;2023-07-13T07:43:36;98472.91;;;24.83;43.33
55604;BME280;41468;48.838;9.330;2023-07-13T07:46:03;98469.72;;;25.03;43.64
55604;BME280;41468;48.838;9.330;2023-07-13T07:48:30;98467.91;;;25.18;42.40
55604;BME280;41468;48.838;9.330;2023-07-13T07:50:57;98463.75;;;25.32;41.63
55604;BME280;41468;48.838;9.330;2023-07-13T07:53:24;98471.47;;;25.28;40.47
55604;BME280;41468;48.838;9.330;2023-07-13T07:55:51;98470.88;;;25.51;41.16
55604;BME280;41468;48.838;9.330;2023-07-13T07:58:21;98476.03;;;25.62;40.14
55604;BME280;41468;48.838;9.330;2023-07-13T08:00:51;98474.00;;;25.53;40.31
55604;BME280;41468;48.838;9.330;2023-07-13T08:03:20;98471.19;;;25.63;39.56
55604;BME280;41468;48.838;9.330;2023-07-13T08:05:53;98479.91;;;25.74;39.06
55604;BME280;41468;48.838;9.330;2023-07-13T08:08:23;98471.38;;;25.87;40.08
55604;BME280;41468;48.838;9.330;2023-07-13T08:10:50;98472.75;;;26.00;40.41
55604;BME280;41468;48.838;9.330;2023-07-13T08:13:22;98473.53;;;26.19;40.79
55604;BME280;41468;48.838;9.330;2023-07-13T08:15:49;98472.72;;;26.28;40.07
55604;BME280;41468;48.838;9.330;2023-07-13T08:18:17;98483.41;;;26.30;39.58
55604;BME280;41468;48.838;9.330;2023-07-13T08:20:43;98480.19;;;26.22;38.60
55604;BME280;41468;48.838;9.330;2023-07-13T08:23:17;98466.63;;;26.30;38.83
55604;BME280;41468;48.838;9.330;2023-07-13T08:25:53;98479.97;;;26.53;38.78
55604;BME280;41468;48.838;9.330;2023-07-13T08:28:21;98481.38;;;26.39;38.63
55604;BME280;41468;48.838;9.330;2023-07-13T08:30:47;98481.66;;;26.51;38.56
55604;BME280;41468;48.838;9.330;2023-07-13T08:33:19;98487.81;;;26.73;38.22
55604;BME280;41468;48.838;9.330;2023-07-13T08:35:47;98485.75;;;26.83;38.09
55604;BME280;41468;48.838;9.330;2023-07-13T08:38:15;98482.09;;;27.01;36.77
55604;BME280;41468;48.838;9.330;2023-07-13T08:40:42;98475.25;;;26.69;36.50
55604;BME280;41468;48.838;9.330;2023-07-13T08:43:15;98479.81;;;26.90;37.82
55604;BME280;41468;48.838;9.330;2023-07-13T08:45:46;98485.25;;;26.94;35.92
55604;BME280;41468;48.838;9.330;2023-07-13T08:48:27;98479.38;;;26.82;36.46
55604;BME280;41468;48.838;9.330;2023-07-13T08:53:57;98479.50;;;26.88;37.08
55604;BME280;41468;48.838;9.330;2023-07-13T08:56:27;98490.06;;;27.26;36.45
55604;BME280;41468;48.838;9.330;2023-07-13T08:58:57;98490.06;;;27.26;37.65
55604;BME280;41468;48.838;9.330;2023-07-13T09:01:32;98490.00;;;27.36;37.16
55604;BME280;41468;48.838;9.330;2023-07-13T09:04:07;98492.69;;;27.54;36.42
55604;BME280;41468;48.838;9.330;2023-07-13T09:09:29;98488.94;;;27.33;35.15
55604;BME280;41468;48.838;9.330;2023-07-13T09:12:38;98495.53;;;27.69;35.61
55604;BME280;41468;48.838;9.330;2023-07-13T09:15:24;98487.72;;;27.73;34.68
55604;BME280;41468;48.838;9.330;2023-07-13T09:17:55;98495.81;;;27.71;35.72
55604;BME280;41468;48.838;9.330;2023-07-13T09:20:29;98497.03;;;27.94;35.69
55604;BME280;41468;48.838;9.330;2023-07-13T09:22:59;98491.06;;;28.01;34.92
55604;BME280;41468;48.838;9.330;2023-07-13T09:25:33;98489.53;;;28.00;34.44
55604;BME280;41468;48.838;9.330;2023-07-13T09:28:12;98493.56;;;27.60;35.62
55604;BME280;41468;48.838;9.330;2023-07-13T09:33:15;98491.25;;;27.97;34.84
55604;BME280;41468;48.838;9.330;2023-07-13T09:35:42;98483.25;;;28.05;35.13
55604;BME280;41468;48.838;9.330;2023-07-13T09:38:14;98487.88;;;28.23;34.59
55604;BME280;41468;48.838;9.330;2023-07-13T09:40:53;98485.66;;;28.27;35.50
55604;BME280;41468;48.838;9.330;2023-07-13T09:43:23;98478.88;;;28.34;35.56
55604;BME280;41468;48.838;9.330;2023-07-13T09:45:55;98476.00;;;28.13;34.31
55604;BME280;41468;48.838;9.330;2023-07-13T09:48:22;98480.22;;;28.24;33.87
55604;BME280;41468;48.838;9.330;2023-07-13T09:50:54;98480.63;;;28.31;35.43
55604;BME280;41468;48.838;9.330;2023-07-13T09:53:22;98489.16;;;28.22;33.67
55604;BME280;41468;48.838;9.330;2023-07-13T09:55:50;98483.91;;;28.15;34.46
55604;BME280;41468;48.838;9.330;2023-07-13T09:58:21;98483.50;;;28.37;35.01
55604;BME280;41468;48.838;9.330;2023-07-13T10:01:01;98484.88;;;28.41;33.85
55604;BME280;41468;48.838;9.330;2023-07-13T10:03:35;98478.50;;;28.41;33.17
55604;BME280;41468;48.838;9.330;2023-07-13T10:06:16;98471.81;;;28.24;33.27
55604;BME280;41468;48.838;9.330;2023-07-13T10:08:45;98473.84;;;28.53;34.03
55604;BME280;41468;48.838;9.330;2023-07-13T10:11:18;98479.84;;;28.31;33.91
55604;BME280;41468;48.838;9.330;2023-07-13T10:13:55;98475.09;;;28.22;33.29
55604;BME280;41468;48.838;9.330;2023-07-13T10:16:26;98474.53;;;28.48;32.79
55604;BME280;41468;48.838;9.330;2023-07-13T10:18:59;98477.72;;;28.40;33.69
55604;BME280;41468;48.838;9.330;2023-07-13T10:21:35;98470.56;;;28.25;33.20
55604;BME280;41468;48.838;9.330;2023-07-13T10:24:16;98473.06;;;28.23;34.22
55604;BME280;41468;48.838;9.330;2023-07-13T10:26:48;98475.81;;;28.32;33.44
55604;BME280;41468;48.838;9.330;2023-07-13T10:29:18;98479.16;;;28.36;33.45
55604;BME280;41468;48.838;9.330;2023-07-13T10:31:47;98476.56;;;28.62;34.42
55604;BME280;41468;48.838;9.330;2023-07-13T10:34:14;98468.31;;;28.29;34.42
55604;BME280;41468;48.838;9.330;2023-07-13T10:36:46;98475.19;;;28.13;34.76
55604;BME280;41468;48.838;9.330;2023-07-13T10:39:21;98463.03;;;28.16;34.43
55604;BME280;41468;48.838;9.330;2023-07-13T10:41:55;98474.59;;;27.94;35.07
55604;BME280;41468;48.838;9.330;2023-07-13T10:44:29;98472.19;;;28.02;34.30
55604;BME280;41468;48.838;9.330;2023-07-13T10:47:01;98467.69;;;27.41;36.47
55604;BME280;41468;48.838;9.330;2023-07-13T10:49:35;98472.84;;;27.09;36.05
55604;BME280;41468;48.838;9.330;2023-07-13T10:52:03;98466.31;;;27.37;36.21
55604;BME280;41468;48.838;9.330;2023-07-13T10:54:33;98472.75;;;27.52;36.08
55604;BME280;41468;48.838;9.330;2023-07-13T10:57:19;98469.97;;;27.28;34.91
55604;BME280;41468;48.838;9.330;2023-07-13T11:00:19;98472.97;;;27.24;36.53
55604;BME280;41468;48.838;9.330;2023-07-13T11:02:56;98460.78;;;27.27;35.86
55604;BME280;41468;48.838;9.330;2023-07-13T11:07:54;98462.13;;;27.08;36.38
55604;BME280;41468;48.838;9.330;2023-07-13T11:10:45;98455.97;;;26.95;36.82
55604;BME280;41468;48.838;9.330;2023-07-13T11:18:50;98459.13;;;26.87;36.42
55604;BME280;41468;48.838;9.330;2023-07-13T11:21:23;98459.16;;;26.78;36.94
55604;BME280;41468;48.838;9.330;2023-07-13T11:24:18;98457.34;;;27.33;37.03
55604;BME280;41468;48.838;9.330;2023-07-13T11:31:42;98440.66;;;28.07;35.13
55604;BME280;41468;48.838;9.330;2023-07-13T11:34:15;98439.56;;;28.04;34.32
55604;BME280;41468;48.838;9.330;2023-07-13T11:36:43;98433.78;;;28.23;34.80
55604;BME280;41468;48.838;9.330;2023-07-13T11:39:32;98437.63;;;28.55;34.50
55604;BME280;41468;48.838;9.330;2023-07-13T11:42:02;98436.50;;;28.82;33.27
55604;BME280;41468;48.838;9.330;2023-07-13T11:44:32;98441.28;;;28.76;33.92
55604;BME280;41468;48.838;9.330;2023-07-13T11:47:09;98430.56;;;28.95;35.10
55604;BME280;41468;48.838;9.330;2023-07-13T11:49:45;98432.97;;;29.22;32.80
55604;BME280;41468;48.838;9.330;2023-07-13T11:52:17;98427.22;;;28.76;34.05
55604;BME280;41468;48.838;9.330;2023-07-13T11:54:50;98433.09;;;28.42;35.42
55604;BME280;41468;48.838;9.330;2023-07-13T11:57:29;98433.75;;;28.52;33.25
55604;BME280;41468;48.838;9.330;2023-07-13T12:00:11;98444.53;;;28.89;34.37
55604;BME280;41468;48.838;9.330;2023-07-13T12:02:42;98444.69;;;29.00;33.92
55604;BME280;41468;48.838;9.330;2023-07-13T12:05:12;98441.06;;;29.15;33.34
55604;BME280;41468;48.838;9.330;2023-07-13T12:07:40;98440.66;;;29.42;34.01
55604;BME280;41468;48.838;9.330;2023-07-13T12:12:48;98445.81;;;29.49;33.24
55604;BME280;41468;48.838;9.330;2023-07-13T12:15:15;98444.41;;;29.60;32.96
55604;BME280;41468;48.838;9.330;2023-07-13T12:17:42;98435.88;;;29.69;32.74
55604;BME280;41468;48.838;9.330;2023-07-13T12:20:25;98440.88;;;29.85;32.98
55604;BME280;41468;48.838;9.330;2023-07-13T12:22:53;98437.19;;;30.00;31.37
55604;BME280;41468;48.838;9.330;2023-07-13T12:25:22;98428.00;;;29.79;33.06
55604;BME280;41468;48.838;9.330;2023-07-13T12:27:50;98442.38;;;29.60;32.71
55604;BME280;41468;48.838;9.330;2023-07-13T12:30:27;98435.97;;;29.80;32.70
55604;BME280;41468;48.838;9.330;2023-07-13T12:32:59;98434.38;;;30.00;31.57
55604;BME280;41468;48.838;9.330;2023-07-13T12:35:30;98436.09;;;29.91;30.41
55604;BME280;41468;48.838;9.330;2023-07-13T12:38:02;98434.72;;;29.61;31.66
55604;BME280;41468;48.838;9.330;2023-07-13T12:40:34;98440.03;;;28.97;33.12
55604;BME280;41468;48.838;9.330;2023-07-13T12:43:12;98438.56;;;28.67;33.52
55604;BME280;41468;48.838;9.330;2023-07-13T12:45:55;98438.50;;;28.96;33.97
55604;BME280;41468;48.838;9.330;2023-07-13T12:48:22;98444.22;;;29.22;33.40
55604;BME280;41468;48.838;9.330;2023-07-13T12:50:55;98434.25;;;29.21;31.99
55604;BME280;41468;48.838;9.330;2023-07-13T12:53:27;98442.19;;;29.43;32.88
55604;BME280;41468;48.838;9.330;2023-07-13T12:55:56;98433.31;;;29.71;32.74
55604;BME280;41468;48.838;9.330;2023-07-13T12:58:29;98436.75;;;29.60;31.59
55604;BME280;41468;48.838;9.330;2023-07-13T13:00:59;98433.31;;;29.30;32.20
55604;BME280;41468;48.838;9.330;2023-07-13T13:08:46;98426.06;;;29.03;32.30
55604;BME280;41468;48.838;9.330;2023-07-13T13:11:15;98425.72;;;28.60;32.42
55604;BME280;41468;48.838;9.330;2023-07-13T13:13:43;98428.13;;;28.67;32.49
55604;BME280;41468;48.838;9.330;2023-07-13T13:16:21;98432.63;;;28.29;32.76
55604;BME280;41468;48.838;9.330;2023-07-13T13:18:50;98417.00;;;28.28;32.06
55604;BME280;41468;48.838;9.330;2023-07-13T13:21:17;98424.09;;;28.53;32.37
55604;BME280;41468;48.838;9.330;2023-07-13T13:23:45;98428.50;;;28.75;32.47
55604;BME280;41468;48.838;9.330;2023-07-13T13:26:23;98421.81;;;28.93;31.82
55604;BME280;41468;48.838;9.330;2023-07-13T13:28:50;98422.03;;;28.89;31.88
55604;BME280;41468;48.838;9.330;2023-07-13T13:31:17;98423.09;;;28.92;31.66
55604;BME280;41468;48.838;9.330;2023-07-13T13:33:45;98408.31;;;28.76;31.89
55604;BME280;41468;48.838;9.330;2023-07-13T13:36:18;98410.81;;;28.39;32.23
55604;BME280;41468;48.838;9.330;2023-07-13T13:38:46;98412.84;;;28.38;33.29
55604;BME280;41468;48.838;9.330;2023-07-13T13:41:14;98408.47;;;28.67;32.28
55604;BME280;41468;48.838;9.330;2023-07-13T13:43:42;98412.41;;;28.96;31.74